sensor_id;sensor_type;location;lat;lon;timestamp;P1;durP1;ratioP1;P2;durP2;ratioP2
55172;SDS011;41061;52.822;6.860;2024-01-30T00:01:52;21.55;;;14.40;;
55172;SDS011;41061;52.822;6.860;2024-01-30T00:04:18;23.50;;;14.45;;
55172;SDS011;41061;52.822;6.860;2024-01-30T00:06:44;19.58;;;13.70;;
55172;SDS011;41061;52.822;6.860;2024-01-30T00:09:11;19.25;;;13.70;;
55172;SDS011;41061;52.822;6.860;2024-01-30T00:11:37;24.55;;;14.93;;
55172;SDS011;41061;52.822;6.860;2024-01-30T00:14:04;23.95;;;14.90;;
55172;SDS011;41061;52.822;6.860;2024-01-30T00:16:30;20.98;;;14.18;;
55172;SDS011;41061;52.822;6.860;2024-01-30T00:18:56;20.70;;;14.70;;
55172;SDS011;41061;52.822;6.860;2024-01-30T00:21:22;20.90;;;13.75;;
55172;SDS011;41061;52.822;6.860;2024-01-30T00:23:49;25.52;;;14.10;;
55172;SDS011;41061;52.822;6.860;2024-01-30T00:26:15;23.13;;;14.02;;
55172;SDS011;41061;52.822;6.860;2024-01-30T00:28:41;25.65;;;14.20;;
55172;SDS011;41061;52.822;6.860;2024-01-30T00:31:08;23.77;;;13.07;;
55172;SDS011;41061;52.822;6.860;2024-01-30T00:33:37;18.90;;;13.25;;
55172;SDS011;41061;52.822;6.860;2024-01-30T00:36:04;20.40;;;13.07;;
55172;SDS011;41061;52.822;6.860;2024-01-30T00:38:31;22.80;;;12.80;;
55172;SDS011;41061;52.822;6.860;2024-01-30T00:40:57;20.50;;;13.18;;
55172;SDS011;41061;52.822;6.860;2024-01-30T00:43:24;23.88;;;12.73;;
55172;SDS011;41061;52.822;6.860;2024-01-30T00:45:51;26.42;;;13.57;;
55172;SDS011;41061;52.822;6.860;2024-01-30T00:48:17;18.08;;;12.35;;
55172;SDS011;41061;52.822;6.860;2024-01-30T00:50:44;19.10;;;13.10;;
55172;SDS011;41061;52.822;6.860;2024-01-30T00:53:10;18.27;;;12.32;;
55172;SDS011;41061;52.822;6.860;2024-01-30T00:55:36;22.05;;;13.35;;
55172;SDS011;41061;52.822;6.860;2024-01-30T00:58:03;20.90;;;13.30;;
55172;SDS011;41061;52.822;6.860;2024-01-30T01:00:29;23.92;;;12.70;;
55172;SDS011;41061;52.822;6.860;2024-01-30T01:02:57;23.63;;;14.35;;
55172;SDS011;41061;52.822;6.860;2024-01-30T01:05:23;23.00;;;12.75;;
55172;SDS011;41061;52.822;6.860;2024-01-30T01:07:49;20.25;;;13.20;;
55172;SDS011;41061;52.822;6.860;2024-01-30T01:10:19;21.85;;;13.60;;
55172;SDS011;41061;52.822;6.860;2024-01-30T01:12:45;22.55;;;13.35;;
55172;SDS011;41061;52.822;6.860;2024-01-30T01:15:11;19.83;;;13.63;;
55172;SDS011;41061;52.822;6.860;2024-01-30T01:17:38;25.38;;;14.25;;
55172;SDS011;41061;52.822;6.860;2024-01-30T01:20:05;19.63;;;13.13;;
55172;SDS011;41061;52.822;6.860;2024-01-30T01:22:31;20.30;;;13.57;;
55172;SDS011;41061;52.822;6.860;2024-01-30T01:24:58;23.08;;;13.20;;
55172;SDS011;41061;52.822;6.860;2024-01-30T01:27:24;22.02;;;13.80;;
55172;SDS011;41061;52.822;6.860;2024-01-30T01:29:51;19.45;;;13.45;;
55172;SDS011;41061;52.822;6.860;2024-01-30T01:32:17;18.92;;;13.45;;
55172;SDS011;41061;52.822;6.860;2024-01-30T01:34:45;23.60;;;14.13;;
55172;SDS011;41061;52.822;6.860;2024-01-30T01:37:11;23.58;;;13.95;;
55172;SDS011;41061;52.822;6.860;2024-01-30T01:39:37;21.55;;;13.85;;
55172;SDS011;41061;52.822;6.860;2024-01-30T01:42:03;19.08;;;12.45;;
55172;SDS011;41061;52.822;6.860;2024-01-30T01:44:30;21.30;;;13.40;;
55172;SDS011;41061;52.822;6.860;2024-01-30T01:46:56;18.77;;;12.38;;
55172;SDS011;41061;52.822;6.860;2024-01-30T01:49:26;18.98;;;12.57;;
55172;SDS011;41061;52.822;6.860;2024-01-30T01:51:53;20.45;;;12.23;;
55172;SDS011;41061;52.822;6.860;2024-01-30T01:54:21;20.02;;;12.93;;
55172;SDS011;41061;52.822;6.860;2024-01-30T01:56:47;17.77;;;12.45;;
55172;SDS011;41061;52.822;6.860;2024-01-30T01:59:13;18.00;;;11.63;;
55172;SDS011;41061;52.822;6.860;2024-01-30T02:01:40;16.95;;;12.82;;
55172;SDS011;41061;52.822;6.860;2024-01-30T02:04:07;19.83;;;12.80;;
55172;SDS011;41061;52.822;6.860;2024-01-30T02:06:34;20.55;;;13.05;;
55172;SDS011;41061;52.822;6.860;2024-01-30T02:09:00;18.60;;;12.57;;
55172;SDS011;41061;52.822;6.860;2024-01-30T02:11:26;19.83;;;12.48;;
55172;SDS011;41061;52.822;6.860;2024-01-30T02:13:53;16.55;;;11.95;;
55172;SDS011;41061;52.822;6.860;2024-01-30T02:16:19;16.17;;;12.27;;
55172;SDS011;41061;52.822;6.860;2024-01-30T02:18:45;16.80;;;12.45;;
55172;SDS011;41061;52.822;6.860;2024-01-30T02:21:16;20.27;;;11.93;;
55172;SDS011;41061;52.822;6.860;2024-01-30T02:23:43;22.05;;;12.10;;
55172;SDS011;41061;52.822;6.860;2024-01-30T02:26:10;20.50;;;12.48;;
55172;SDS011;41061;52.822;6.860;2024-01-30T02:28:37;19.80;;;12.57;;
55172;SDS011;41061;52.822;6.860;2024-01-30T02:31:03;18.17;;;11.80;;
55172;SDS011;41061;52.822;6.860;2024-01-30T02:33:29;19.15;;;11.55;;
55172;SDS011;41061;52.822;6.860;2024-01-30T02:35:55;21.42;;;11.18;;
55172;SDS011;41061;52.822;6.860;2024-01-30T02:38:21;19.60;;;12.43;;
55172;SDS011;41061;52.822;6.860;2024-01-30T02:40:50;16.65;;;11.82;;
55172;SDS011;41061;52.822;6.860;2024-01-30T02:43:17;17.77;;;10.77;;
55172;SDS011;41061;52.822;6.860;2024-01-30T02:45:43;18.05;;;12.15;;
55172;SDS011;41061;52.822;6.860;2024-01-30T02:48:09;14.35;;;10.80;;
55172;SDS011;41061;52.822;6.860;2024-01-30T02:50:35;19.20;;;11.27;;
55172;SDS011;41061;52.822;6.860;2024-01-30T02:53:01;20.27;;;11.88;;
55172;SDS011;41061;52.822;6.860;2024-01-30T02:55:27;16.95;;;11.23;;
55172;SDS011;41061;52.822;6.860;2024-01-30T02:57:53;15.80;;;10.88;;
55172;SDS011;41061;52.822;6.860;2024-01-30T03:00:19;17.70;;;12.10;;
55172;SDS011;41061;52.822;6.860;2024-01-30T03:02:45;17.23;;;12.10;;
55172;SDS011;41061;52.822;6.860;2024-01-30T03:05:12;16.73;;;12.00;;
55172;SDS011;41061;52.822;6.860;2024-01-30T03:07:38;16.73;;;10.82;;
55172;SDS011;41061;52.822;6.860;2024-01-30T03:10:04;19.45;;;11.43;;
55172;SDS011;41061;52.822;6.860;2024-01-30T03:12:31;20.60;;;11.80;;
55172;SDS011;41061;52.822;6.860;2024-01-30T03:14:57;18.23;;;11.95;;
55172;SDS011;41061;52.822;6.860;2024-01-30T03:17:23;22.73;;;12.45;;
55172;SDS011;41061;52.822;6.860;2024-01-30T03:19:49;16.55;;;11.73;;
55172;SDS011;41061;52.822;6.860;2024-01-30T03:22:15;18.10;;;11.63;;
55172;SDS011;41061;52.822;6.860;2024-01-30T03:24:41;16.40;;;12.00;;
55172;SDS011;41061;52.822;6.860;2024-01-30T03:27:08;15.48;;;11.30;;
55172;SDS011;41061;52.822;6.860;2024-01-30T03:29:34;21.77;;;12.38;;
55172;SDS011;41061;52.822;6.860;2024-01-30T03:32:00;16.83;;;11.88;;
55172;SDS011;41061;52.822;6.860;2024-01-30T03:34:26;18.75;;;11.88;;
55172;SDS011;41061;52.822;6.860;2024-01-30T03:36:52;19.75;;;12.00;;
55172;SDS011;41061;52.822;6.860;2024-01-30T03:39:18;18.65;;;11.60;;
55172;SDS011;41061;52.822;6.860;2024-01-30T03:41:44;18.92;;;11.55;;
55172;SDS011;41061;52.822;6.860;2024-01-30T03:44:11;19.17;;;11.25;;
55172;SDS011;41061;52.822;6.860;2024-01-30T03:46:37;15.57;;;11.23;;
55172;SDS011;41061;52.822;6.860;2024-01-30T03:49:03;17.27;;;10.68;;
55172;SDS011;41061;52.822;6.860;2024-01-30T03:51:29;17.35;;;11.43;;
55172;SDS011;41061;52.822;6.860;2024-01-30T03:53:55;16.85;;;11.38;;
55172;SDS011;41061;52.822;6.860;2024-01-30T03:56:21;20.95;;;12.27;;
55172;SDS011;41061;52.822;6.860;2024-01-30T03:58:47;20.30;;;12.32;;
55172;SDS011;41061;52.822;6.860;2024-01-30T04:01:14;19.85;;;11.77;;
55172;SDS011;41061;52.822;6.860;2024-01-30T04:03:40;21.13;;;11.43;;
55172;SDS011;41061;52.822;6.860;2024-01-30T04:06:07;15.25;;;11.25;;
55172;SDS011;41061;52.822;6.860;2024-01-30T04:08:33;16.80;;;11.73;;
55172;SDS011;41061;52.822;6.860;2024-01-30T04:10:59;21.30;;;12.00;;
55172;SDS011;41061;52.822;6.860;2024-01-30T04:13:28;18.95;;;12.20;;
55172;SDS011;41061;52.822;6.860;2024-01-30T04:15:54;18.70;;;12.52;;
55172;SDS011;41061;52.822;6.860;2024-01-30T04:18:21;18.70;;;11.40;;
55172;SDS011;41061;52.822;6.860;2024-01-30T04:20:47;18.70;;;12.32;;
55172;SDS011;41061;52.822;6.860;2024-01-30T04:23:13;17.42;;;11.10;;
55172;SDS011;41061;52.822;6.860;2024-01-30T04:25:39;16.45;;;11.82;;
55172;SDS011;41061;52.822;6.860;2024-01-30T04:28:05;21.42;;;12.13;;
55172;SDS011;41061;52.822;6.860;2024-01-30T04:30:31;17.98;;;11.70;;
55172;SDS011;41061;52.822;6.860;2024-01-30T04:32:58;23.13;;;12.43;;
55172;SDS011;41061;52.822;6.860;2024-01-30T04:35:24;15.88;;;11.45;;
55172;SDS011;41061;52.822;6.860;2024-01-30T04:37:51;17.65;;;11.60;;
55172;SDS011;41061;52.822;6.860;2024-01-30T04:40:18;15.88;;;11.90;;
55172;SDS011;41061;52.822;6.860;2024-01-30T04:42:44;18.77;;;12.13;;
55172;SDS011;41061;52.822;6.860;2024-01-30T04:45:10;17.20;;;12.38;;
55172;SDS011;41061;52.822;6.860;2024-01-30T04:47:36;16.90;;;11.20;;
55172;SDS011;41061;52.822;6.860;2024-01-30T04:50:02;19.55;;;11.93;;
55172;SDS011;41061;52.822;6.860;2024-01-30T04:52:29;20.73;;;11.50;;
55172;SDS011;41061;52.822;6.860;2024-01-30T04:54:55;15.93;;;11.40;;
55172;SDS011;41061;52.822;6.860;2024-01-30T04:57:21;16.30;;;11.13;;
55172;SDS011;41061;52.822;6.860;2024-01-30T04:59:47;16.63;;;10.90;;
55172;SDS011;41061;52.822;6.860;2024-01-30T05:02:14;15.65;;;10.77;;
55172;SDS011;41061;52.822;6.860;2024-01-30T05:04:40;20.05;;;11.80;;
55172;SDS011;41061;52.822;6.860;2024-01-30T05:07:07;17.90;;;11.77;;
55172;SDS011;41061;52.822;6.860;2024-01-30T05:09:33;21.10;;;11.45;;
55172;SDS011;41061;52.822;6.860;2024-01-30T05:11:59;16.67;;;11.45;;
55172;SDS011;41061;52.822;6.860;2024-01-30T05:14:25;19.90;;;12.27;;
55172;SDS011;41061;52.822;6.860;2024-01-30T05:16:51;18.55;;;12.00;;
55172;SDS011;41061;52.822;6.860;2024-01-30T05:19:17;20.23;;;11.70;;
55172;SDS011;41061;52.822;6.860;2024-01-30T05:21:43;23.48;;;12.35;;
55172;SDS011;41061;52.822;6.860;2024-01-30T05:24:10;18.65;;;11.35;;
55172;SDS011;41061;52.822;6.860;2024-01-30T05:26:36;18.33;;;11.65;;
55172;SDS011;41061;52.822;6.860;2024-01-30T05:29:02;21.63;;;12.07;;
55172;SDS011;41061;52.822;6.860;2024-01-30T05:31:28;21.70;;;13.02;;
55172;SDS011;41061;52.822;6.860;2024-01-30T05:33:54;18.65;;;12.13;;
55172;SDS011;41061;52.822;6.860;2024-01-30T05:36:21;16.05;;;11.52;;
55172;SDS011;41061;52.822;6.860;2024-01-30T05:38:47;21.13;;;12.38;;
55172;SDS011;41061;52.822;6.860;2024-01-30T05:41:13;18.73;;;12.40;;
55172;SDS011;41061;52.822;6.860;2024-01-30T05:43:39;20.02;;;12.13;;
55172;SDS011;41061;52.822;6.860;2024-01-30T05:46:06;21.05;;;12.68;;
55172;SDS011;41061;52.822;6.860;2024-01-30T05:48:32;17.08;;;11.70;;
55172;SDS011;41061;52.822;6.860;2024-01-30T05:51:00;17.52;;;12.02;;
55172;SDS011;41061;52.822;6.860;2024-01-30T05:53:26;26.15;;;12.55;;
55172;SDS011;41061;52.822;6.860;2024-01-30T05:55:52;19.88;;;13.05;;
55172;SDS011;41061;52.822;6.860;2024-01-30T05:58:24;17.65;;;12.38;;
55172;SDS011;41061;52.822;6.860;2024-01-30T06:00:50;18.83;;;12.63;;
55172;SDS011;41061;52.822;6.860;2024-01-30T06:03:17;26.13;;;12.52;;
55172;SDS011;41061;52.822;6.860;2024-01-30T06:05:43;21.80;;;12.40;;
55172;SDS011;41061;52.822;6.860;2024-01-30T06:08:09;19.33;;;12.10;;
55172;SDS011;41061;52.822;6.860;2024-01-30T06:10:35;21.10;;;13.40;;
55172;SDS011;41061;52.822;6.860;2024-01-30T06:13:01;19.15;;;12.75;;
55172;SDS011;41061;52.822;6.860;2024-01-30T06:15:27;20.17;;;12.75;;
55172;SDS011;41061;52.822;6.860;2024-01-30T06:17:54;18.65;;;12.02;;
55172;SDS011;41061;52.822;6.860;2024-01-30T06:20:21;17.33;;;12.32;;
55172;SDS011;41061;52.822;6.860;2024-01-30T06:22:47;23.08;;;13.82;;
55172;SDS011;41061;52.822;6.860;2024-01-30T06:25:16;21.10;;;12.35;;
55172;SDS011;41061;52.822;6.860;2024-01-30T06:27:42;18.17;;;12.70;;
55172;SDS011;41061;52.822;6.860;2024-01-30T06:30:08;20.60;;;12.00;;
55172;SDS011;41061;52.822;6.860;2024-01-30T06:32:37;19.38;;;13.35;;
55172;SDS011;41061;52.822;6.860;2024-01-30T06:35:04;19.30;;;11.73;;
55172;SDS011;41061;52.822;6.860;2024-01-30T06:37:30;21.77;;;12.85;;
55172;SDS011;41061;52.822;6.860;2024-01-30T06:39:56;21.08;;;14.25;;
55172;SDS011;41061;52.822;6.860;2024-01-30T06:42:22;23.45;;;12.38;;
55172;SDS011;41061;52.822;6.860;2024-01-30T06:44:49;20.63;;;12.00;;
55172;SDS011;41061;52.822;6.860;2024-01-30T06:47:15;25.55;;;12.82;;
55172;SDS011;41061;52.822;6.860;2024-01-30T06:49:41;21.25;;;12.57;;
55172;SDS011;41061;52.822;6.860;2024-01-30T06:52:08;20.13;;;13.20;;
55172;SDS011;41061;52.822;6.860;2024-01-30T06:54:35;19.35;;;13.25;;
55172;SDS011;41061;52.822;6.860;2024-01-30T06:57:01;18.83;;;12.57;;
55172;SDS011;41061;52.822;6.860;2024-01-30T06:59:28;19.83;;;13.40;;
55172;SDS011;41061;52.822;6.860;2024-01-30T07:01:54;21.98;;;12.23;;
55172;SDS011;41061;52.822;6.860;2024-01-30T07:04:20;21.80;;;12.45;;
55172;SDS011;41061;52.822;6.860;2024-01-30T07:06:46;22.48;;;12.88;;
55172;SDS011;41061;52.822;6.860;2024-01-30T07:09:12;20.25;;;12.98;;
55172;SDS011;41061;52.822;6.860;2024-01-30T07:11:38;20.90;;;11.95;;
55172;SDS011;41061;52.822;6.860;2024-01-30T07:14:04;16.67;;;11.73;;
55172;SDS011;41061;52.822;6.860;2024-01-30T07:16:30;21.98;;;11.73;;
55172;SDS011;41061;52.822;6.860;2024-01-30T07:18:56;16.15;;;11.38;;
55172;SDS011;41061;52.822;6.860;2024-01-30T07:21:22;18.73;;;10.93;;
55172;SDS011;41061;52.822;6.860;2024-01-30T07:23:53;16.77;;;11.60;;
55172;SDS011;41061;52.822;6.860;2024-01-30T07:26:20;17.85;;;11.65;;
55172;SDS011;41061;52.822;6.860;2024-01-30T07:28:46;18.55;;;12.73;;
55172;SDS011;41061;52.822;6.860;2024-01-30T07:31:12;20.58;;;12.25;;
55172;SDS011;41061;52.822;6.860;2024-01-30T07:33:38;19.25;;;11.35;;
55172;SDS011;41061;52.822;6.860;2024-01-30T07:36:04;16.15;;;11.20;;
55172;SDS011;41061;52.822;6.860;2024-01-30T07:38:33;17.88;;;11.63;;
55172;SDS011;41061;52.822;6.860;2024-01-30T07:41:00;18.00;;;12.05;;
55172;SDS011;41061;52.822;6.860;2024-01-30T07:43:29;20.30;;;11.98;;
55172;SDS011;41061;52.822;6.860;2024-01-30T07:45:55;17.05;;;11.77;;
55172;SDS011;41061;52.822;6.860;2024-01-30T07:48:21;17.88;;;11.40;;
55172;SDS011;41061;52.822;6.860;2024-01-30T07:50:47;17.85;;;11.93;;
55172;SDS011;41061;52.822;6.860;2024-01-30T07:53:13;16.45;;;12.05;;
55172;SDS011;41061;52.822;6.860;2024-01-30T07:55:40;16.30;;;11.27;;
55172;SDS011;41061;52.822;6.860;2024-01-30T07:58:08;17.25;;;11.10;;
55172;SDS011;41061;52.822;6.860;2024-01-30T08:00:35;16.70;;;11.30;;
55172;SDS011;41061;52.822;6.860;2024-01-30T08:03:02;14.85;;;10.73;;
55172;SDS011;41061;52.822;6.860;2024-01-30T08:05:28;18.80;;;11.60;;
55172;SDS011;41061;52.822;6.860;2024-01-30T08:07:54;14.77;;;10.52;;
55172;SDS011;41061;52.822;6.860;2024-01-30T08:10:20;18.33;;;11.43;;
55172;SDS011;41061;52.822;6.860;2024-01-30T08:12:46;17.20;;;11.30;;
55172;SDS011;41061;52.822;6.860;2024-01-30T08:15:12;18.52;;;11.15;;
55172;SDS011;41061;52.822;6.860;2024-01-30T08:17:38;17.33;;;11.32;;
55172;SDS011;41061;52.822;6.860;2024-01-30T08:20:04;17.95;;;12.15;;
55172;SDS011;41061;52.822;6.860;2024-01-30T08:22:31;19.85;;;11.48;;
55172;SDS011;41061;52.822;6.860;2024-01-30T08:24:57;14.65;;;10.82;;
55172;SDS011;41061;52.822;6.860;2024-01-30T08:27:23;17.20;;;11.32;;
55172;SDS011;41061;52.822;6.860;2024-01-30T08:29:49;18.60;;;11.80;;
55172;SDS011;41061;52.822;6.860;2024-01-30T08:32:15;16.60;;;11.25;;
55172;SDS011;41061;52.822;6.860;2024-01-30T08:34:41;17.55;;;11.15;;
55172;SDS011;41061;52.822;6.860;2024-01-30T08:37:07;17.77;;;11.23;;
55172;SDS011;41061;52.822;6.860;2024-01-30T08:39:33;20.90;;;11.65;;
55172;SDS011;41061;52.822;6.860;2024-01-30T08:41:59;18.88;;;11.02;;
55172;SDS011;41061;52.822;6.860;2024-01-30T08:44:26;17.50;;;11.23;;
55172;SDS011;41061;52.822;6.860;2024-01-30T08:46:52;16.58;;;12.10;;
55172;SDS011;41061;52.822;6.860;2024-01-30T08:49:19;21.13;;;11.07;;
55172;SDS011;41061;52.822;6.860;2024-01-30T08:51:46;17.35;;;11.25;;
55172;SDS011;41061;52.822;6.860;2024-01-30T08:54:12;15.80;;;10.35;;
55172;SDS011;41061;52.822;6.860;2024-01-30T08:56:38;18.08;;;11.38;;
55172;SDS011;41061;52.822;6.860;2024-01-30T08:59:04;15.77;;;10.43;;
55172;SDS011;41061;52.822;6.860;2024-01-30T09:01:30;15.75;;;10.27;;
55172;SDS011;41061;52.822;6.860;2024-01-30T09:03:56;15.50;;;10.93;;
55172;SDS011;41061;52.822;6.860;2024-01-30T09:06:22;19.65;;;11.13;;
55172;SDS011;41061;52.822;6.860;2024-01-30T09:08:53;17.05;;;10.65;;
55172;SDS011;41061;52.822;6.860;2024-01-30T09:11:19;15.45;;;10.13;;
55172;SDS011;41061;52.822;6.860;2024-01-30T09:13:45;13.90;;;10.00;;
55172;SDS011;41061;52.822;6.860;2024-01-30T09:16:11;14.95;;;10.45;;
55172;SDS011;41061;52.822;6.860;2024-01-30T09:18:37;21.58;;;10.63;;
55172;SDS011;41061;52.822;6.860;2024-01-30T09:21:03;14.98;;;10.10;;
55172;SDS011;41061;52.822;6.860;2024-01-30T09:23:29;18.83;;;10.80;;
55172;SDS011;41061;52.822;6.860;2024-01-30T09:25:56;17.55;;;10.23;;
55172;SDS011;41061;52.822;6.860;2024-01-30T09:28:22;18.52;;;10.63;;
55172;SDS011;41061;52.822;6.860;2024-01-30T09:30:48;18.52;;;10.05;;
55172;SDS011;41061;52.822;6.860;2024-01-30T09:33:15;15.50;;;10.43;;
55172;SDS011;41061;52.822;6.860;2024-01-30T09:35:41;17.30;;;10.00;;
55172;SDS011;41061;52.822;6.860;2024-01-30T09:38:07;15.68;;;9.90;;
55172;SDS011;41061;52.822;6.860;2024-01-30T09:40:33;15.85;;;10.00;;
55172;SDS011;41061;52.822;6.860;2024-01-30T09:42:59;16.75;;;9.98;;
55172;SDS011;41061;52.822;6.860;2024-01-30T09:45:25;16.58;;;9.02;;
55172;SDS011;41061;52.822;6.860;2024-01-30T09:47:52;18.10;;;10.27;;
55172;SDS011;41061;52.822;6.860;2024-01-30T09:50:19;18.42;;;10.18;;
55172;SDS011;41061;52.822;6.860;2024-01-30T09:52:45;14.98;;;10.18;;
55172;SDS011;41061;52.822;6.860;2024-01-30T09:55:12;21.73;;;10.13;;
55172;SDS011;41061;52.822;6.860;2024-01-30T09:57:38;16.02;;;9.63;;
55172;SDS011;41061;52.822;6.860;2024-01-30T10:00:05;15.70;;;9.57;;
55172;SDS011;41061;52.822;6.860;2024-01-30T10:02:35;14.77;;;10.00;;
55172;SDS011;41061;52.822;6.860;2024-01-30T10:05:01;17.83;;;9.82;;
55172;SDS011;41061;52.822;6.860;2024-01-30T10:07:28;15.57;;;9.70;;
55172;SDS011;41061;52.822;6.860;2024-01-30T10:09:55;17.40;;;9.45;;
55172;SDS011;41061;52.822;6.860;2024-01-30T10:12:22;13.45;;;9.20;;
55172;SDS011;41061;52.822;6.860;2024-01-30T10:14:48;20.08;;;10.00;;
55172;SDS011;41061;52.822;6.860;2024-01-30T10:17:14;19.52;;;10.32;;
55172;SDS011;41061;52.822;6.860;2024-01-30T10:19:41;12.70;;;9.32;;
55172;SDS011;41061;52.822;6.860;2024-01-30T10:22:07;14.68;;;9.75;;
55172;SDS011;41061;52.822;6.860;2024-01-30T10:24:34;14.65;;;9.98;;
55172;SDS011;41061;52.822;6.860;2024-01-30T10:27:00;15.70;;;9.57;;
55172;SDS011;41061;52.822;6.860;2024-01-30T10:29:26;18.50;;;8.93;;
55172;SDS011;41061;52.822;6.860;2024-01-30T10:32:03;15.48;;;9.15;;
55172;SDS011;41061;52.822;6.860;2024-01-30T10:37:08;14.55;;;8.75;;
55172;SDS011;41061;52.822;6.860;2024-01-30T10:39:38;16.52;;;9.43;;
55172;SDS011;41061;52.822;6.860;2024-01-30T10:42:11;16.23;;;8.73;;
55172;SDS011;41061;52.822;6.860;2024-01-30T10:45:22;18.05;;;9.50;;
55172;SDS011;41061;52.822;6.860;2024-01-30T10:49:49;14.30;;;9.15;;
55172;SDS011;41061;52.822;6.860;2024-01-30T10:52:16;14.48;;;8.45;;
55172;SDS011;41061;52.822;6.860;2024-01-30T10:54:44;19.55;;;8.82;;
55172;SDS011;41061;52.822;6.860;2024-01-30T10:57:10;20.50;;;9.35;;
55172;SDS011;41061;52.822;6.860;2024-01-30T10:59:37;15.68;;;9.20;;
55172;SDS011;41061;52.822;6.860;2024-01-30T11:02:03;14.45;;;9.18;;
55172;SDS011;41061;52.822;6.860;2024-01-30T11:04:40;133.95;;;20.60;;
55172;SDS011;41061;52.822;6.860;2024-01-30T11:07:16;24.02;;;10.35;;
55172;SDS011;41061;52.822;6.860;2024-01-30T11:09:50;22.00;;;9.63;;
55172;SDS011;41061;52.822;6.860;2024-01-30T11:12:21;39.13;;;11.80;;
55172;SDS011;41061;52.822;6.860;2024-01-30T11:17:40;20.52;;;10.52;;
55172;SDS011;41061;52.822;6.860;2024-01-30T11:20:16;19.90;;;9.50;;
55172;SDS011;41061;52.822;6.860;2024-01-30T11:22:42;14.63;;;9.55;;
55172;SDS011;41061;52.822;6.860;2024-01-30T11:25:16;16.63;;;9.85;;
55172;SDS011;41061;52.822;6.860;2024-01-30T11:27:44;15.77;;;9.43;;
55172;SDS011;41061;52.822;6.860;2024-01-30T11:30:20;19.33;;;9.40;;
55172;SDS011;41061;52.822;6.860;2024-01-30T11:35:32;22.05;;;10.88;;
55172;SDS011;41061;52.822;6.860;2024-01-30T11:38:09;12.63;;;8.98;;
55172;SDS011;41061;52.822;6.860;2024-01-30T11:40:36;17.00;;;9.82;;
55172;SDS011;41061;52.822;6.860;2024-01-30T11:43:04;19.90;;;9.00;;
55172;SDS011;41061;52.822;6.860;2024-01-30T11:45:31;14.18;;;9.25;;
55172;SDS011;41061;52.822;6.860;2024-01-30T11:48:00;18.63;;;9.75;;
55172;SDS011;41061;52.822;6.860;2024-01-30T11:50:28;16.58;;;10.38;;
55172;SDS011;41061;52.822;6.860;2024-01-30T11:52:55;21.13;;;9.90;;
55172;SDS011;41061;52.822;6.860;2024-01-30T11:55:22;19.95;;;10.00;;
55172;SDS011;41061;52.822;6.860;2024-01-30T11:57:48;16.10;;;9.00;;
55172;SDS011;41061;52.822;6.860;2024-01-30T12:00:17;17.10;;;9.45;;
55172;SDS011;41061;52.822;6.860;2024-01-30T12:02:44;17.67;;;9.80;;
55172;SDS011;41061;52.822;6.860;2024-01-30T12:05:21;24.30;;;10.90;;
55172;SDS011;41061;52.822;6.860;2024-01-30T12:07:47;18.10;;;9.88;;
55172;SDS011;41061;52.822;6.860;2024-01-30T12:10:13;18.02;;;9.95;;
55172;SDS011;41061;52.822;6.860;2024-01-30T12:12:39;21.33;;;10.95;;
55172;SDS011;41061;52.822;6.860;2024-01-30T12:15:07;15.43;;;9.82;;
55172;SDS011;41061;52.822;6.860;2024-01-30T12:17:34;16.23;;;10.55;;
55172;SDS011;41061;52.822;6.860;2024-01-30T12:22:33;23.50;;;10.82;;
55172;SDS011;41061;52.822;6.860;2024-01-30T12:25:07;17.23;;;10.20;;
55172;SDS011;41061;52.822;6.860;2024-01-30T12:27:37;19.15;;;10.65;;
55172;SDS011;41061;52.822;6.860;2024-01-30T12:30:07;20.77;;;11.02;;
55172;SDS011;41061;52.822;6.860;2024-01-30T12:32:44;16.60;;;10.57;;
55172;SDS011;41061;52.822;6.860;2024-01-30T12:35:15;16.23;;;10.25;;
55172;SDS011;41061;52.822;6.860;2024-01-30T12:37:45;17.88;;;10.20;;
55172;SDS011;41061;52.822;6.860;2024-01-30T12:40:13;13.10;;;10.23;;
55172;SDS011;41061;52.822;6.860;2024-01-30T12:42:39;22.15;;;9.32;;
55172;SDS011;41061;52.822;6.860;2024-01-30T12:45:07;16.77;;;9.73;;
55172;SDS011;41061;52.822;6.860;2024-01-30T12:47:34;16.95;;;10.18;;
55172;SDS011;41061;52.822;6.860;2024-01-30T12:50:00;13.90;;;9.23;;
55172;SDS011;41061;52.822;6.860;2024-01-30T12:52:25;21.33;;;9.48;;
55172;SDS011;41061;52.822;6.860;2024-01-30T12:54:52;14.13;;;9.15;;
55172;SDS011;41061;52.822;6.860;2024-01-30T12:57:20;15.18;;;8.23;;
55172;SDS011;41061;52.822;6.860;2024-01-30T12:59:46;15.40;;;8.52;;
55172;SDS011;41061;52.822;6.860;2024-01-30T13:02:13;15.43;;;8.80;;
55172;SDS011;41061;52.822;6.860;2024-01-30T13:04:39;16.13;;;8.13;;
55172;SDS011;41061;52.822;6.860;2024-01-30T13:07:05;19.20;;;8.90;;
55172;SDS011;41061;52.822;6.860;2024-01-30T13:09:31;19.15;;;7.38;;
55172;SDS011;41061;52.822;6.860;2024-01-30T13:11:58;16.27;;;6.82;;
55172;SDS011;41061;52.822;6.860;2024-01-30T13:14:24;13.73;;;7.45;;
55172;SDS011;41061;52.822;6.860;2024-01-30T13:16:50;14.55;;;7.90;;
55172;SDS011;41061;52.822;6.860;2024-01-30T13:19:17;16.02;;;7.57;;
55172;SDS011;41061;52.822;6.860;2024-01-30T13:21:42;22.45;;;8.13;;
55172;SDS011;41061;52.822;6.860;2024-01-30T13:24:08;17.02;;;8.48;;
55172;SDS011;41061;52.822;6.860;2024-01-30T13:26:34;19.05;;;10.07;;
55172;SDS011;41061;52.822;6.860;2024-01-30T13:29:00;11.70;;;7.05;;
55172;SDS011;41061;52.822;6.860;2024-01-30T13:31:26;15.60;;;5.47;;
55172;SDS011;41061;52.822;6.860;2024-01-30T13:33:53;17.30;;;9.10;;
55172;SDS011;41061;52.822;6.860;2024-01-30T13:36:19;13.88;;;4.53;;
55172;SDS011;41061;52.822;6.860;2024-01-30T13:38:46;13.82;;;5.20;;
55172;SDS011;41061;52.822;6.860;2024-01-30T13:41:12;7.90;;;3.42;;
55172;SDS011;41061;52.822;6.860;2024-01-30T13:43:38;7.97;;;3.45;;
55172;SDS011;41061;52.822;6.860;2024-01-30T13:46:04;7.90;;;3.20;;
55172;SDS011;41061;52.822;6.860;2024-01-30T13:48:34;11.43;;;4.30;;
55172;SDS011;41061;52.822;6.860;2024-01-30T13:51:00;9.27;;;3.42;;
55172;SDS011;41061;52.822;6.860;2024-01-30T13:53:26;7.47;;;3.38;;
55172;SDS011;41061;52.822;6.860;2024-01-30T13:55:52;6.70;;;3.45;;
55172;SDS011;41061;52.822;6.860;2024-01-30T13:58:18;9.18;;;3.13;;
55172;SDS011;41061;52.822;6.860;2024-01-30T14:00:44;7.03;;;2.90;;
55172;SDS011;41061;52.822;6.860;2024-01-30T14:03:10;4.53;;;2.60;;
55172;SDS011;41061;52.822;6.860;2024-01-30T14:05:36;4.20;;;2.63;;
55172;SDS011;41061;52.822;6.860;2024-01-30T14:08:03;5.13;;;2.40;;
55172;SDS011;41061;52.822;6.860;2024-01-30T14:10:30;12.27;;;2.80;;
55172;SDS011;41061;52.822;6.860;2024-01-30T14:12:56;8.27;;;3.05;;
55172;SDS011;41061;52.822;6.860;2024-01-30T14:15:22;35.35;;;6.20;;
55172;SDS011;41061;52.822;6.860;2024-01-30T14:17:49;7.80;;;3.05;;
55172;SDS011;41061;52.822;6.860;2024-01-30T14:20:15;5.68;;;2.58;;
55172;SDS011;41061;52.822;6.860;2024-01-30T14:22:42;8.45;;;2.70;;
55172;SDS011;41061;52.822;6.860;2024-01-30T14:25:08;5.40;;;2.85;;
55172;SDS011;41061;52.822;6.860;2024-01-30T14:27:35;6.63;;;2.25;;
55172;SDS011;41061;52.822;6.860;2024-01-30T14:30:01;4.40;;;1.88;;
55172;SDS011;41061;52.822;6.860;2024-01-30T14:32:28;4.32;;;1.83;;
55172;SDS011;41061;52.822;6.860;2024-01-30T14:34:54;4.93;;;1.80;;
55172;SDS011;41061;52.822;6.860;2024-01-30T14:37:20;3.42;;;1.52;;